CheckWX is a tool to help pilots better visualize weather data.  It is not intended as a substitute for an official pre-flight weather briefing.

12:04:39 UTC

3R7 METAR
Jennings Airport
Jennings, Louisiana, USA
Current

10 mins ago

K3R7 251155Z AUTO 00000KT 7SM BKN008 OVC013 18/18 A3009 RMK AO2 T01800175 10185 20173
Observed
Mar-25 @ 11:55 UTC
Visibility
7 SM
Flight Rules
IFR
Cloud Levels
  • Broken at 800' AGL
  • Overcast at 1,300' AGL
Temperature
18°C / 64°F
Dewpoint
18°C / 64°F
Humidity
100%
Altimeter
30.09" Hg
Pressure
1018.92 hPa
Previous

30 mins ago

K3R7 251135Z AUTO 00000KT 10SM BKN008 OVC016 18/18 A3009 RMK AO2 T01780175
Observed
Mar-25 @ 11:35 UTC
Visibility
10 SM
Flight Rules
IFR
Cloud Levels
  • Broken at 800' AGL
  • Overcast at 1,600' AGL
Temperature
18°C / 64°F
Dewpoint
18°C / 64°F
Humidity
100%
Altimeter
30.09" Hg
Pressure
1018.92 hPa
Previous

50 mins ago

K3R7 251115Z AUTO 00000KT 7SM SCT010 BKN016 OVC026 18/17 A3008 RMK AO2 LTG DSNT NE T01760172
Observed
Mar-25 @ 11:15 UTC
Visibility
7 SM
Flight Rules
MVFR
Cloud Levels
  • Scattered at 1,000' AGL
  • Broken at 1,600' AGL
  • Overcast at 2,600' AGL
Temperature
18°C / 64°F
Dewpoint
17°C / 63°F
Humidity
94%
Altimeter
30.08" Hg
Pressure
1018.62 hPa